Time;durP1;ratioP1;P1;durP2;ratioP2;P2;SDS_P1;SDS_P2;PMS_P1;PMS_P2;Temp;Humidity;BMP_temperature;BMP_pressure;BME280_temperature;BME280_humidity;BME280_pressure;Samples;Min_cycle;Max_cycle;Signal;HPM_P1;HPM_P2
2022/08/22 00:04:45;;;;;;;8.35;7.55;;;;;;;;;;16895800;29;20205;-81
2022/08/22 00:13:18;;;;;;;9.48;8.68;;;;;;;;;;16895371;29;20177;-81
2022/08/22 00:21:52;;;;;;;8.68;7.88;;;;;;;;;;16896956;29;20165;-81
2022/08/22 00:30:14;;;;;;;9.48;8.57;;;;;;;;;;16893613;29;20336;-81
2022/08/22 00:38:39;;;;;;;9.95;8.95;;;;;;;;;;16893094;29;20197;-81
2022/08/22 00:47:08;;;;;;;9.55;8.60;;;;;;;;;;16892200;29;20259;-81
2022/08/22 00:55:29;;;;;;;11.27;9.30;;;;;;;;;;16893206;28;20259;-81
2022/08/22 01:04:10;;;;;;;10.45;8.95;;;;;;;;;;16891818;29;20190;-81
2022/08/22 01:12:48;;;;;;;9.95;8.77;;;;;;;;;;16891116;29;20205;-81
2022/08/22 01:21:21;;;;;;;8.95;8.15;;;;;;;;;;16891926;28;20235;-81
2022/08/22 01:29:41;;;;;;;9.48;8.50;;;;;;;;;;16890982;29;20548;-81
2022/08/22 01:38:01;;;;;;;9.85;8.85;;;;;;;;;;16889162;28;20193;-81
2022/08/22 01:46:30;;;;;;;9.82;8.82;;;;;;;;;;16888663;28;20244;-82
2022/08/22 01:54:50;;;;;;;10.25;9.25;;;;;;;;;;16888317;28;20241;-82
2022/08/22 02:03:20;;;;;;;9.93;8.93;;;;;;;;;;16887925;29;20173;-82
2022/08/22 02:11:51;;;;;;;10.30;9.23;;;;;;;;;;16889382;28;20284;-80
2022/08/22 02:20:21;;;;;;;11.63;9.00;;;;;;;;;;16888086;29;20593;-81
2022/08/22 02:28:54;;;;;;;11.30;8.82;;;;;;;;;;16887684;29;20213;-81
2022/08/22 02:37:20;;;;;;;9.80;8.68;;;;;;;;;;16887307;29;20686;-81
2022/08/22 02:45:53;;;;;;;10.30;9.25;;;;;;;;;;16888050;29;20209;-81
2022/08/22 02:54:26;;;;;;;10.95;9.88;;;;;;;;;;16885972;28;20278;-82
2022/08/22 03:03:04;;;;;;;9.93;9.02;;;;;;;;;;16886116;28;20501;-81
2022/08/22 03:11:32;;;;;;;9.55;8.65;;;;;;;;;;16885482;28;20208;-81
2022/08/22 03:19:59;;;;;;;10.82;9.73;;;;;;;;;;16885558;29;20177;-81
2022/08/22 03:28:23;;;;;;;10.52;9.52;;;;;;;;;;16884071;28;20296;-81
2022/08/22 03:36:45;;;;;;;12.23;10.80;;;;;;;;;;16884672;29;20661;-81
2022/08/22 03:45:09;;;;;;;10.73;9.63;;;;;;;;;;16884455;29;20279;-81
2022/08/22 03:53:32;;;;;;;10.73;9.60;;;;;;;;;;16884809;28;20313;-81
2022/08/22 04:02:02;;;;;;;10.95;9.85;;;;;;;;;;16883806;29;20659;-81
2022/08/22 04:10:48;;;;;;;10.60;9.60;;;;;;;;;;16884841;29;20682;-81
2022/08/22 04:19:11;;;;;;;13.90;10.52;;;;;;;;;;16885813;29;20161;-81
2022/08/22 04:27:58;;;;;;;12.98;10.93;;;;;;;;;;16894503;28;20266;-81
2022/08/22 04:36:33;;;;;;;11.85;10.63;;;;;;;;;;16899496;29;20703;-81
2022/08/22 04:45:09;;;;;;;11.93;10.73;;;;;;;;;;16892835;29;20217;-81
2022/08/22 04:53:54;;;;;;;13.05;10.43;;;;;;;;;;16892216;28;20295;-81
2022/08/22 05:02:22;;;;;;;11.88;10.50;;;;;;;;;;16892909;29;20189;-81
2022/08/22 05:10:45;;;;;;;11.38;9.85;;;;;;;;;;16891380;29;20209;-81
2022/08/22 05:19:08;;;;;;;10.88;9.82;;;;;;;;;;16890899;29;20223;-81
2022/08/22 05:27:30;;;;;;;12.45;11.25;;;;;;;;;;16889289;28;20204;-81
2022/08/22 05:36:03;;;;;;;13.48;10.55;;;;;;;;;;16889735;28;20173;-82
2022/08/22 05:44:25;;;;;;;13.05;10.85;;;;;;;;;;16888520;29;20216;-81
2022/08/22 05:52:59;;;;;;;11.23;10.00;;;;;;;;;;16902835;28;20532;-81
2022/08/22 06:01:23;;;;;;;13.70;11.50;;;;;;;;;;16900507;29;20185;-81
2022/08/22 06:09:46;;;;;;;12.07;10.82;;;;;;;;;;16898586;28;20216;-81
2022/08/22 06:18:10;;;;;;;19.08;10.48;;;;;;;;;;16891527;28;20589;-80
2022/08/22 06:26:34;;;;;;;11.52;10.40;;;;;;;;;;16889737;28;20213;-80
2022/08/22 06:34:57;;;;;;;12.13;8.63;;;;;;;;;;16888414;28;20640;-81
2022/08/22 06:43:18;;;;;;;9.82;8.50;;;;;;;;;;16888952;29;20595;-81
2022/08/22 06:51:38;;;;;;;11.98;8.70;;;;;;;;;;16886614;29;20208;-81
2022/08/22 07:00:00;;;;;;;9.68;8.25;;;;;;;;;;16895685;28;20257;-81
2022/08/22 07:08:21;;;;;;;9.23;8.05;;;;;;;;;;16890433;28;20317;-81
2022/08/22 07:16:57;;;;;;;9.52;8.60;;;;;;;;;;16884822;28;20509;-80
2022/08/22 07:25:17;;;;;;;8.82;8.00;;;;;;;;;;16890065;29;20263;-81
2022/08/22 07:33:38;;;;;;;8.02;7.32;;;;;;;;;;16892831;29;20185;-81
2022/08/22 07:42:09;;;;;;;8.13;7.43;;;;;;;;;;16894354;29;20217;-82
2022/08/22 07:50:33;;;;;;;7.93;7.10;;;;;;;;;;16891465;29;20201;-81
2022/08/22 07:58:59;;;;;;;7.35;6.40;;;;;;;;;;16898091;28;20244;-80
2022/08/22 08:07:22;;;;;;;7.88;6.82;;;;;;;;;;16919809;29;20203;-80
2022/08/22 08:15:44;;;;;;;7.20;6.50;;;;;;;;;;16910238;29;20199;-79
2022/08/22 08:24:06;;;;;;;6.65;6.15;;;;;;;;;;16931455;29;20180;-81
2022/08/22 08:32:29;;;;;;;6.38;5.75;;;;;;;;;;16899864;29;20232;-82
2022/08/22 08:41:08;;;;;;;8.95;5.80;;;;;;;;;;16897411;29;20292;-82
2022/08/22 08:49:36;;;;;;;5.93;5.43;;;;;;;;;;16898826;28;20534;-83
2022/08/22 08:58:11;;;;;;;6.35;5.40;;;;;;;;;;16898542;28;20221;-83
2022/08/22 09:06:37;;;;;;;5.80;5.30;;;;;;;;;;16898431;29;20696;-83
2022/08/22 09:15:04;;;;;;;6.25;5.28;;;;;;;;;;16895686;28;20193;-81
2022/08/22 09:23:44;;;;;;;6.35;5.22;;;;;;;;;;16896409;29;20264;-82
2022/08/22 09:32:04;;;;;;;5.53;5.03;;;;;;;;;;16896516;28;20229;-83
2022/08/22 09:40:30;;;;;;;5.63;5.22;;;;;;;;;;16896849;29;20203;-79
2022/08/22 09:48:56;;;;;;;6.68;5.85;;;;;;;;;;16900338;29;20212;-79
2022/08/22 09:57:19;;;;;;;8.40;5.50;;;;;;;;;;16901824;28;20330;-80
2022/08/22 10:05:46;;;;;;;9.68;5.97;;;;;;;;;;16897506;29;20245;-79
2022/08/22 10:14:19;;;;;;;7.43;5.97;;;;;;;;;;16893296;28;20188;-79
2022/08/22 10:22:39;;;;;;;8.63;6.32;;;;;;;;;;16891756;29;20260;-80
2022/08/22 10:31:11;;;;;;;7.72;6.95;;;;;;;;;;16893197;29;20227;-79
2022/08/22 10:39:43;;;;;;;13.27;7.35;;;;;;;;;;16893433;29;20539;-80
2022/08/22 10:48:03;;;;;;;8.55;7.78;;;;;;;;;;16890035;28;20240;-79
2022/08/22 10:56:27;;;;;;;8.85;7.35;;;;;;;;;;16890222;28;20237;-79
2022/08/22 11:04:50;;;;;;;9.98;7.25;;;;;;;;;;16888596;29;20257;-79
2022/08/22 11:13:20;;;;;;;11.60;7.63;;;;;;;;;;16895651;29;20536;-80
2022/08/22 11:21:44;;;;;;;9.70;7.57;;;;;;;;;;16892959;29;20636;-81
2022/08/22 11:30:13;;;;;;;7.80;7.10;;;;;;;;;;16903627;29;20278;-80
2022/08/22 11:38:42;;;;;;;8.48;7.38;;;;;;;;;;16907716;28;20663;-80
2022/08/22 11:47:07;;;;;;;8.73;7.07;;;;;;;;;;16909313;29;20215;-79
2022/08/22 11:55:37;;;;;;;8.10;7.30;;;;;;;;;;16917045;28;20236;-80
2022/08/22 12:04:09;;;;;;;7.13;6.20;;;;;;;;;;16932097;29;20212;-79
2022/08/22 12:12:29;;;;;;;8.73;7.85;;;;;;;;;;16960155;29;20217;-81
2022/08/22 12:20:57;;;;;;;11.45;7.60;;;;;;;;;;16962919;28;20216;-81
2022/08/22 12:29:21;;;;;;;10.82;7.88;;;;;;;;;;16899827;28;20568;-81
2022/08/22 12:37:44;;;;;;;10.88;7.88;;;;;;;;;;16897698;29;20262;-81
2022/08/22 12:46:24;;;;;;;10.15;7.60;;;;;;;;;;16896815;29;20291;-81
2022/08/22 12:54:44;;;;;;;10.52;7.90;;;;;;;;;;16895427;28;20229;-80
2022/08/22 13:03:10;;;;;;;11.13;8.50;;;;;;;;;;16896000;28;20210;-81
2022/08/22 13:11:36;;;;;;;10.13;8.60;;;;;;;;;;16892576;29;20711;-81
2022/08/22 13:20:16;;;;;;;11.02;7.72;;;;;;;;;;16898652;29;20171;-81
2022/08/22 13:28:43;;;;;;;10.55;7.75;;;;;;;;;;16903071;29;20232;-81
2022/08/22 13:37:06;;;;;;;9.43;7.72;;;;;;;;;;16898402;29;20263;-81
2022/08/22 13:45:27;;;;;;;8.82;6.38;;;;;;;;;;16904490;29;20239;-80
2022/08/22 13:54:00;;;;;;;11.05;6.97;;;;;;;;;;16895137;28;20233;-80
2022/08/22 14:02:31;;;;;;;9.13;6.85;;;;;;;;;;16884504;29;20180;-81
2022/08/22 14:10:54;;;;;;;8.57;7.30;;;;;;;;;;16884801;29;20213;-80
2022/08/22 14:19:30;;;;;;;8.15;6.22;;;;;;;;;;16889452;28;20234;-80
2022/08/22 14:27:56;;;;;;;7.47;6.70;;;;;;;;;;16888100;29;20710;-80
2022/08/22 14:36:25;;;;;;;7.13;6.53;;;;;;;;;;16887707;29;20215;-80
2022/08/22 14:45:24;;;;;;;9.75;7.60;;;;;;;;;;16886956;29;20291;-80
2022/08/22 14:53:45;;;;;;;7.90;6.95;;;;;;;;;;16929516;28;20239;-80
2022/08/22 15:02:13;;;;;;;8.55;7.75;;;;;;;;;;16887319;28;20177;-81
2022/08/22 15:10:33;;;;;;;13.82;7.88;;;;;;;;;;16886705;29;20577;-81
2022/08/22 15:18:53;;;;;;;9.50;8.30;;;;;;;;;;16887009;29;20185;-81
2022/08/22 15:27:18;;;;;;;8.63;7.72;;;;;;;;;;16886818;29;20208;-82
2022/08/22 15:35:40;;;;;;;8.52;7.70;;;;;;;;;;16886691;29;20285;-82
2022/08/22 15:44:03;;;;;;;10.23;7.22;;;;;;;;;;16888113;29;20209;-82
2022/08/22 15:52:27;;;;;;;8.40;7.50;;;;;;;;;;16886118;28;20332;-82
2022/08/22 16:01:06;;;;;;;10.90;7.65;;;;;;;;;;16884974;28;20236;-82
2022/08/22 16:09:29;;;;;;;9.60;6.93;;;;;;;;;;16876215;29;20289;-82
2022/08/22 16:17:50;;;;;;;10.32;7.00;;;;;;;;;;16887271;29;20176;-82
2022/08/22 16:26:13;;;;;;;10.43;7.18;;;;;;;;;;16894487;29;20657;-82
2022/08/22 16:34:34;;;;;;;7.75;6.95;;;;;;;;;;16893601;29;20513;-82
2022/08/22 16:43:13;;;;;;;12.63;7.55;;;;;;;;;;16893397;29;20256;-82
2022/08/22 16:51:33;;;;;;;7.95;6.88;;;;;;;;;;16893421;29;20295;-82
2022/08/22 17:00:00;;;;;;;11.60;7.35;;;;;;;;;;16894007;28;20237;-82
2022/08/22 17:08:25;;;;;;;10.40;7.43;;;;;;;;;;16891011;28;20596;-82
2022/08/22 17:16:45;;;;;;;11.52;7.68;;;;;;;;;;16891722;29;20181;-82
2022/08/22 17:25:11;;;;;;;22.83;9.45;;;;;;;;;;16890621;29;20694;-81
2022/08/22 17:33:50;;;;;;;8.85;7.63;;;;;;;;;;16892484;28;20180;-82
2022/08/22 17:42:23;;;;;;;16.73;8.95;;;;;;;;;;16891354;29;20661;-82
2022/08/22 17:50:46;;;;;;;9.02;7.72;;;;;;;;;;16889516;29;20256;-81
2022/08/22 17:59:16;;;;;;;13.18;8.45;;;;;;;;;;16887215;28;20340;-82
2022/08/22 18:07:43;;;;;;;9.80;8.82;;;;;;;;;;16888023;29;20210;-82
2022/08/22 18:16:20;;;;;;;9.43;8.52;;;;;;;;;;16894206;28;20196;-81
2022/08/22 18:25:12;;;;;;;10.38;9.25;;;;;;;;;;16898853;29;20221;-81
2022/08/22 18:33:32;;;;;;;10.80;8.88;;;;;;;;;;16908769;29;20193;-82
2022/08/22 18:42:00;;;;;;;10.77;8.52;;;;;;;;;;16899677;28;20248;-81
2022/08/22 18:50:40;;;;;;;13.75;8.95;;;;;;;;;;16903869;28;20211;-81
2022/08/22 18:59:07;;;;;;;11.13;9.93;;;;;;;;;;16925034;28;20268;-82
2022/08/22 19:07:49;;;;;;;12.40;10.23;;;;;;;;;;16913322;28;20244;-82
2022/08/22 19:16:30;;;;;;;11.70;9.10;;;;;;;;;;16886444;29;20193;-81
2022/08/22 19:25:09;;;;;;;11.75;10.10;;;;;;;;;;16887816;29;20228;-81
2022/08/22 19:33:39;;;;;;;14.13;10.07;;;;;;;;;;16883809;29;20232;-81
2022/08/22 19:42:00;;;;;;;12.02;10.13;;;;;;;;;;16885410;28;20280;-82
2022/08/22 19:50:21;;;;;;;16.92;11.10;;;;;;;;;;16888543;28;20221;-81
2022/08/22 19:58:53;;;;;;;16.65;10.52;;;;;;;;;;16895891;28;20287;-81
2022/08/22 20:07:13;;;;;;;11.77;10.50;;;;;;;;;;16894786;29;20215;-82
2022/08/22 20:15:53;;;;;;;13.93;10.80;;;;;;;;;;16894563;28;20612;-82
2022/08/22 20:24:13;;;;;;;13.30;11.27;;;;;;;;;;16893293;29;20304;-82
2022/08/22 20:32:42;;;;;;;16.23;11.43;;;;;;;;;;16892643;29;20693;-82
2022/08/22 20:41:17;;;;;;;13.05;11.60;;;;;;;;;;16892042;28;20250;-82
2022/08/22 20:49:41;;;;;;;17.00;11.38;;;;;;;;;;16893226;28;20201;-82
2022/08/22 20:58:04;;;;;;;12.45;10.48;;;;;;;;;;16891094;28;20695;-82
2022/08/22 21:06:29;;;;;;;14.13;11.32;;;;;;;;;;16891314;29;20267;-82
2022/08/22 21:14:50;;;;;;;13.15;11.30;;;;;;;;;;16890771;28;20235;-82
2022/08/22 21:23:14;;;;;;;14.93;11.60;;;;;;;;;;16890781;28;20588;-82
2022/08/22 21:31:40;;;;;;;17.45;11.48;;;;;;;;;;16891018;28;20254;-82
2022/08/22 21:40:00;;;;;;;14.85;12.50;;;;;;;;;;16889680;29;20193;-82
2022/08/22 21:48:29;;;;;;;16.95;11.85;;;;;;;;;;16888633;28;20241;-81
2022/08/22 21:57:09;;;;;;;16.27;12.32;;;;;;;;;;16889839;28;20244;-82
2022/08/22 22:05:30;;;;;;;14.23;12.73;;;;;;;;;;16888368;29;20209;-82
2022/08/22 22:13:50;;;;;;;18.10;12.85;;;;;;;;;;16887484;28;20224;-82
2022/08/22 22:22:11;;;;;;;15.68;13.18;;;;;;;;;;16887698;28;20181;-82
2022/08/22 22:30:31;;;;;;;20.70;15.02;;;;;;;;;;16885829;28;20217;-82
2022/08/22 22:38:51;;;;;;;19.50;13.93;;;;;;;;;;16886260;28;20204;-82
2022/08/22 22:47:12;;;;;;;16.08;13.73;;;;;;;;;;16887746;28;20296;-82
2022/08/22 22:55:32;;;;;;;17.75;13.15;;;;;;;;;;16884573;28;20228;-82
2022/08/22 23:03:54;;;;;;;18.15;14.30;;;;;;;;;;16884769;28;20173;-82
2022/08/22 23:12:14;;;;;;;20.73;14.73;;;;;;;;;;16885394;28;20209;-82
2022/08/22 23:20:34;;;;;;;27.40;16.95;;;;;;;;;;16887146;29;20240;-83
2022/08/22 23:28:55;;;;;;;20.40;15.93;;;;;;;;;;16893351;28;20221;-83
2022/08/22 23:37:17;;;;;;;20.88;14.95;;;;;;;;;;16895871;29;20506;-83
2022/08/22 23:45:37;;;;;;;22.08;15.90;;;;;;;;;;16897563;28;20209;-83
2022/08/22 23:53:58;;;;;;;22.27;15.25;;;;;;;;;;16895157;28;20256;-83
